Time;durP1;ratioP1;P1;durP2;ratioP2;P2;SDS_P1;SDS_P2;PMS_P1;PMS_P2;Temp;Humidity;BMP_temperature;BMP_pressure;BME280_temperature;BME280_humidity;BME280_pressure;Samples;Min_cycle;Max_cycle;Signal;HPM_P1;HPM_P2
2023/12/18 00:00:05;;;;;;;1.67;1.58;;;3.70;99.90;;;;;;6159636;23;20232;-82
2023/12/18 00:02:33;;;;;;;2.88;2.38;;;3.80;99.90;;;;;;6163482;23;20233;-86
2023/12/18 00:05:02;;;;;;;3.35;2.28;;;3.90;99.90;;;;;;6163890;23;20205;-85
2023/12/18 00:07:34;;;;;;;2.60;1.95;;;3.70;99.90;;;;;;6160801;23;20158;-85
2023/12/18 00:10:01;;;;;;;0.40;0.40;;;3.60;99.90;;;;;;6136206;23;20194;-84
2023/12/18 00:12:32;;;;;;;1.13;1.13;;;3.60;99.90;;;;;;6159771;23;20181;-85
2023/12/18 00:15:08;;;;;;;2.15;2.05;;;3.60;99.90;;;;;;6159861;23;20166;-82
2023/12/18 00:17:36;;;;;;;1.25;1.25;;;3.50;99.90;;;;;;6157662;23;20177;-85
2023/12/18 00:20:07;;;;;;;8.55;1.80;;;3.40;99.90;;;;;;6158874;23;20178;-85
2023/12/18 00:22:34;;;;;;;3.03;2.83;;;3.40;99.90;;;;;;6160462;23;20461;-85
2023/12/18 00:25:01;;;;;;;3.13;2.83;;;3.40;99.90;;;;;;6161810;23;20389;-83
2023/12/18 00:27:28;;;;;;;2.47;2.38;;;3.60;99.90;;;;;;6163496;23;20166;-87
2023/12/18 00:29:58;;;;;;;1.05;1.05;;;3.50;99.90;;;;;;6144059;22;20209;-85
2023/12/18 00:32:25;;;;;;;2.55;2.25;;;3.70;99.90;;;;;;6154146;22;20181;-86
2023/12/18 00:34:53;;;;;;;1.88;1.77;;;3.80;99.90;;;;;;6178373;22;20177;-87
2023/12/18 00:37:22;;;;;;;0.82;0.82;;;3.80;99.90;;;;;;6152283;22;20373;-88
2023/12/18 00:39:49;;;;;;;2.78;2.58;;;3.60;99.90;;;;;;6168402;22;20224;-86
2023/12/18 00:42:39;;;;;;;0.98;0.98;;;3.90;99.90;;;;;;6169086;22;20158;-86
2023/12/18 00:47:44;;;;;;;1.23;0.90;;;4.00;99.90;;;;;;6315892;22;20430;-87
2023/12/18 00:50:12;;;;;;;1.88;1.35;;;4.00;99.90;;;;;;6272328;22;20262;-88
2023/12/18 00:52:42;;;;;;;0.50;0.50;;;4.30;99.90;;;;;;6322335;22;20167;-86
2023/12/18 00:55:09;;;;;;;1.40;1.27;;;4.00;99.90;;;;;;6317722;22;20518;-85
2023/12/18 00:57:36;;;;;;;0.70;0.70;;;4.00;99.90;;;;;;6319081;22;20230;-85
2023/12/18 01:00:08;;;;;;;1.83;1.73;;;3.90;99.90;;;;;;6321696;22;20182;-86
2023/12/18 01:02:39;;;;;;;1.85;1.75;;;4.00;99.90;;;;;;6319022;22;20171;-85
2023/12/18 01:05:06;;;;;;;1.00;1.00;;;4.00;99.90;;;;;;6319750;22;20197;-85
2023/12/18 01:07:34;;;;;;;1.48;1.38;;;4.00;99.90;;;;;;6319288;22;20481;-86
2023/12/18 01:10:09;;;;;;;0.50;0.50;;;3.90;99.90;;;;;;6331445;22;20367;-88
2023/12/18 01:12:37;;;;;;;7.78;3.35;;;3.80;99.90;;;;;;6308301;22;20187;-84
2023/12/18 01:15:05;;;;;;;3.58;1.90;;;4.10;99.90;;;;;;6335002;22;20182;-87
2023/12/18 01:39:02;;;;;;;0.40;0.40;;;3.60;99.90;;;;;;6142354;22;20387;-85
2023/12/18 01:41:29;;;;;;;1.15;1.15;;;3.40;99.90;;;;;;6317021;22;20253;-83
2023/12/18 01:49:12;;;;;;;0.65;0.65;;;3.40;99.90;;;;;;6261743;22;20251;-83
2023/12/18 01:51:42;;;;;;;0.73;0.73;;;3.30;99.90;;;;;;6306945;22;20162;-84
2023/12/18 01:54:10;;;;;;;2.00;1.60;;;3.30;99.90;;;;;;6176628;22;20228;-85
2023/12/18 01:56:39;;;;;;;0.60;0.60;;;3.20;99.90;;;;;;6174427;22;20178;-87
2023/12/18 01:59:09;;;;;;;0.70;0.70;;;3.30;99.90;;;;;;6172276;23;20177;-87
2023/12/18 02:01:36;;;;;;;0.73;0.70;;;3.30;99.90;;;;;;6162620;23;20245;-85
2023/12/18 02:04:04;;;;;;;1.10;1.10;;;3.40;99.90;;;;;;6138184;23;20180;-86
2023/12/18 02:06:31;;;;;;;0.57;0.57;;;3.10;99.90;;;;;;6167807;23;20206;-86
2023/12/18 02:09:01;;;;;;;0.73;0.73;;;3.30;99.90;;;;;;6172510;23;20193;-84
2023/12/18 02:11:28;;;;;;;0.65;0.65;;;3.40;99.90;;;;;;6174468;22;20263;-86
2023/12/18 02:13:56;;;;;;;1.45;1.45;;;3.50;99.90;;;;;;6161639;23;20220;-88
2023/12/18 02:16:24;;;;;;;1.42;1.42;;;3.40;99.90;;;;;;6165970;23;20242;-86
2023/12/18 02:18:51;;;;;;;3.75;2.97;;;3.40;99.90;;;;;;6166217;22;20224;-87
2023/12/18 02:21:19;;;;;;;0.65;0.65;;;3.50;99.90;;;;;;6166219;23;20182;-85
2023/12/18 02:23:48;;;;;;;0.50;0.50;;;3.50;99.90;;;;;;6137169;23;20186;-85
2023/12/18 02:26:16;;;;;;;5.68;1.95;;;3.60;99.90;;;;;;6161632;23;20190;-85
2023/12/18 02:28:44;;;;;;;1.15;1.15;;;3.50;99.90;;;;;;6160527;23;20213;-87
2023/12/18 02:31:18;;;;;;;0.50;0.50;;;3.60;99.90;;;;;;6159650;23;20245;-86
2023/12/18 02:33:48;;;;;;;0.68;0.68;;;3.50;99.90;;;;;;6135674;23;20211;-87
2023/12/18 02:36:16;;;;;;;1.48;1.38;;;3.50;99.90;;;;;;6164696;23;20190;-87
2023/12/18 02:38:44;;;;;;;1.77;1.65;;;3.60;99.90;;;;;;6136568;23;20181;-86
2023/12/18 02:41:12;;;;;;;0.50;0.50;;;3.40;99.90;;;;;;6177158;23;20177;-83
2023/12/18 02:43:41;;;;;;;0.60;0.60;;;3.40;99.90;;;;;;6152573;23;20195;-84
2023/12/18 02:46:08;;;;;;;0.60;0.60;;;3.40;99.90;;;;;;6163865;23;20256;-86
2023/12/18 02:48:35;;;;;;;0.95;0.95;;;3.40;99.90;;;;;;6137979;23;20189;-83
2023/12/18 02:51:04;;;;;;;1.35;1.25;;;3.50;99.90;;;;;;6116216;23;20174;-83
2023/12/18 02:53:31;;;;;;;3.38;2.97;;;3.60;99.90;;;;;;6165866;23;20205;-84
2023/12/18 02:55:58;;;;;;;0.50;0.50;;;3.70;99.90;;;;;;6161628;23;20206;-86
2023/12/18 02:58:25;;;;;;;1.92;1.88;;;3.60;99.90;;;;;;6161805;23;20206;-88
2023/12/18 03:00:52;;;;;;;1.38;1.27;;;3.80;99.90;;;;;;6134507;23;20201;-86
2023/12/18 03:03:20;;;;;;;0.88;0.88;;;3.80;99.90;;;;;;6160538;23;20201;-85
2023/12/18 03:05:47;;;;;;;0.90;0.90;;;3.70;99.90;;;;;;6138284;23;20186;-88
2023/12/18 03:08:14;;;;;;;1.40;0.70;;;3.60;99.90;;;;;;6171294;22;20546;-85
2023/12/18 03:10:42;;;;;;;0.50;0.50;;;3.50;99.90;;;;;;6160079;23;20386;-83
2023/12/18 03:13:11;;;;;;;0.70;0.70;;;3.60;99.90;;;;;;6134102;23;20173;-84
2023/12/18 03:15:38;;;;;;;0.63;0.63;;;3.60;99.90;;;;;;6135233;23;20242;-85
2023/12/18 03:18:06;;;;;;;0.70;0.70;;;3.50;99.90;;;;;;6160525;23;20177;-84
2023/12/18 03:20:37;;;;;;;0.90;0.90;;;3.40;99.90;;;;;;6160263;23;20506;-85
2023/12/18 03:23:04;;;;;;;0.50;0.50;;;3.40;99.90;;;;;;6159727;23;20174;-85
2023/12/18 03:25:31;;;;;;;1.00;1.00;;;3.40;99.90;;;;;;6159857;23;20185;-85
2023/12/18 03:27:58;;;;;;;0.50;0.50;;;3.50;99.90;;;;;;6160053;23;20200;-84
2023/12/18 03:30:25;;;;;;;1.60;1.52;;;3.40;99.90;;;;;;6159630;23;20198;-85
2023/12/18 03:32:55;;;;;;;1.67;0.90;;;3.50;99.90;;;;;;6133842;23;20178;-85
2023/12/18 03:35:22;;;;;;;0.65;0.65;;;3.30;99.90;;;;;;6132962;23;20194;-86
2023/12/18 03:37:49;;;;;;;0.70;0.70;;;3.30;99.90;;;;;;6133714;23;20178;-85
2023/12/18 03:40:17;;;;;;;0.80;0.80;;;3.30;99.90;;;;;;6159886;23;20178;-84
2023/12/18 03:42:45;;;;;;;0.95;0.95;;;3.30;99.90;;;;;;6137593;23;20212;-87
2023/12/18 03:45:13;;;;;;;0.47;0.47;;;3.50;99.90;;;;;;6162414;23;20185;-85
2023/12/18 03:47:41;;;;;;;0.50;0.50;;;3.50;99.90;;;;;;6168602;23;20185;-87
2023/12/18 03:50:10;;;;;;;0.77;0.77;;;3.60;99.90;;;;;;6136409;23;20544;-88
2023/12/18 03:52:37;;;;;;;0.50;0.50;;;3.40;99.90;;;;;;6159465;23;20189;-85
2023/12/18 03:55:05;;;;;;;1.40;1.40;;;3.30;99.90;;;;;;6134243;23;20235;-86
2023/12/18 03:57:32;;;;;;;1.88;1.77;;;3.40;99.90;;;;;;6159749;23;20176;-86
2023/12/18 03:59:59;;;;;;;1.10;1.10;;;3.50;99.90;;;;;;6159076;23;20417;-84
2023/12/18 04:02:27;;;;;;;2.60;2.40;;;3.40;99.90;;;;;;6158395;23;20182;-87
2023/12/18 04:04:57;;;;;;;1.05;1.05;;;3.50;99.90;;;;;;6136584;23;20166;-87
2023/12/18 04:07:29;;;;;;;1.00;1.00;;;3.40;99.90;;;;;;6135948;23;20185;-88
2023/12/18 04:09:58;;;;;;;0.60;0.60;;;3.30;99.90;;;;;;6159359;23;20193;-85
2023/12/18 04:12:27;;;;;;;1.10;1.10;;;3.40;99.90;;;;;;6132275;23;20189;-87
2023/12/18 04:14:54;;;;;;;2.90;2.78;;;3.40;99.90;;;;;;6158106;23;20378;-85
2023/12/18 04:17:22;;;;;;;2.72;1.88;;;3.40;99.90;;;;;;6160280;23;20463;-85
2023/12/18 04:19:49;;;;;;;0.50;0.50;;;3.30;99.90;;;;;;6157466;23;20497;-85
2023/12/18 04:22:16;;;;;;;1.33;1.27;;;3.40;99.90;;;;;;6131595;23;20177;-84
2023/12/18 04:24:43;;;;;;;0.52;0.52;;;3.40;99.90;;;;;;6158875;23;20240;-84
2023/12/18 04:27:12;;;;;;;1.25;1.23;;;3.50;99.90;;;;;;6133834;23;20173;-84
2023/12/18 04:29:39;;;;;;;1.13;1.02;;;3.30;99.90;;;;;;6159917;22;20189;-84
2023/12/18 04:32:06;;;;;;;0.45;0.45;;;3.20;99.90;;;;;;6158705;23;20490;-86
2023/12/18 04:34:33;;;;;;;1.25;1.15;;;3.10;99.90;;;;;;6159304;23;20177;-85
2023/12/18 04:37:02;;;;;;;0.75;0.75;;;3.00;99.90;;;;;;6162176;23;20197;-83
2023/12/18 04:39:34;;;;;;;1.98;1.88;;;3.10;99.90;;;;;;6168740;23;20221;-85
2023/12/18 04:42:03;;;;;;;1.08;1.08;;;3.00;99.90;;;;;;6177251;22;20174;-85
2023/12/18 04:44:31;;;;;;;0.50;0.50;;;3.00;99.90;;;;;;6151550;22;20166;-85
2023/12/18 04:46:58;;;;;;;2.05;1.80;;;2.90;99.90;;;;;;6172718;22;20184;-86
2023/12/18 04:49:25;;;;;;;0.73;0.73;;;2.80;99.90;;;;;;6163052;23;20231;-87
2023/12/18 04:51:53;;;;;;;0.68;0.68;;;2.70;99.90;;;;;;6159227;23;20185;-86
2023/12/18 04:54:22;;;;;;;0.80;0.80;;;2.70;99.90;;;;;;6134178;23;20192;-86
2023/12/18 04:56:49;;;;;;;1.30;1.20;;;2.80;99.90;;;;;;6162286;23;20396;-86
2023/12/18 04:59:17;;;;;;;2.03;1.88;;;2.80;99.90;;;;;;6150883;22;20194;-85
2023/12/18 05:01:44;;;;;;;0.57;0.57;;;2.80;99.90;;;;;;6177340;22;20196;-86
2023/12/18 05:04:11;;;;;;;2.05;1.95;;;2.90;99.90;;;;;;6177222;22;20186;-86
2023/12/18 05:06:39;;;;;;;1.10;1.10;;;2.80;99.90;;;;;;6150406;22;20162;-86
2023/12/18 05:09:07;;;;;;;2.83;2.63;;;2.90;99.90;;;;;;6165972;22;20213;-86
2023/12/18 05:11:35;;;;;;;1.70;1.67;;;2.90;99.90;;;;;;6160028;23;20182;-85
2023/12/18 05:14:03;;;;;;;1.50;1.40;;;2.90;99.90;;;;;;6164909;23;20496;-87
2023/12/18 05:16:30;;;;;;;1.70;1.60;;;3.00;99.90;;;;;;6139162;23;20178;-87
2023/12/18 05:18:57;;;;;;;3.40;3.13;;;2.90;99.90;;;;;;6164960;23;20179;-85
2023/12/18 05:21:25;;;;;;;1.60;1.48;;;3.10;99.90;;;;;;6169020;23;20240;-86
2023/12/18 05:23:54;;;;;;;2.50;2.35;;;3.10;99.90;;;;;;6136201;23;20197;-84
2023/12/18 05:26:22;;;;;;;3.80;3.47;;;2.90;99.90;;;;;;6163718;23;20182;-89
2023/12/18 05:28:59;;;;;;;3.80;1.30;;;2.80;99.90;;;;;;6143652;23;20185;-87
2023/12/18 05:47:39;;;;;;;1.75;1.65;;;3.00;99.90;;;;;;6293437;22;20191;-88
2023/12/18 05:50:09;;;;;;;1.88;1.33;;;3.00;99.90;;;;;;6294468;22;20190;-87
2023/12/18 05:52:36;;;;;;;2.30;2.15;;;3.10;99.90;;;;;;6321119;22;20166;-85
2023/12/18 05:55:04;;;;;;;1.77;1.67;;;3.10;99.90;;;;;;6323619;22;20177;-90
2023/12/18 05:57:38;;;;;;;1.92;1.83;;;2.80;99.90;;;;;;6321652;22;20170;-86
2023/12/18 06:00:09;;;;;;;2.28;2.17;;;2.70;99.90;;;;;;6320477;22;20174;-88
2023/12/18 06:02:38;;;;;;;6.53;1.45;;;2.70;99.90;;;;;;6292034;22;20174;-85
2023/12/18 06:05:07;;;;;;;1.63;1.63;;;2.70;99.90;;;;;;6317370;22;20206;-86
2023/12/18 06:07:34;;;;;;;1.83;1.67;;;2.70;99.90;;;;;;6318788;22;20171;-86
2023/12/18 06:10:08;;;;;;;1.17;1.17;;;2.60;99.90;;;;;;6292167;22;20508;-88
2023/12/18 06:12:36;;;;;;;1.83;1.73;;;2.60;99.90;;;;;;6320025;22;20522;-88
2023/12/18 06:15:04;;;;;;;1.77;1.67;;;2.70;99.90;;;;;;6319148;22;20170;-88
2023/12/18 06:17:31;;;;;;;3.17;2.97;;;2.40;99.90;;;;;;6321598;22;20197;-84
2023/12/18 06:19:58;;;;;;;1.65;1.55;;;2.50;99.90;;;;;;6320816;22;20421;-88
2023/12/18 06:22:25;;;;;;;2.05;1.95;;;2.40;99.90;;;;;;6294915;22;20407;-88
2023/12/18 06:24:53;;;;;;;2.85;2.65;;;2.40;99.90;;;;;;6321101;22;20475;-90
2023/12/18 06:27:20;;;;;;;1.55;1.55;;;2.50;99.90;;;;;;6322349;22;20233;-87
2023/12/18 06:29:47;;;;;;;2.10;2.00;;;2.50;99.90;;;;;;6296444;22;20224;-86
2023/12/18 06:32:15;;;;;;;0.57;0.57;;;2.60;99.90;;;;;;6322298;22;20342;-88
2023/12/18 06:34:44;;;;;;;2.80;2.60;;;2.50;99.90;;;;;;6329020;22;20220;-88
2023/12/18 06:37:11;;;;;;;6.90;2.60;;;2.70;99.90;;;;;;6301760;22;20478;-86
2023/12/18 06:39:39;;;;;;;1.38;1.00;;;2.60;99.90;;;;;;6297559;22;20186;-89
2023/12/18 06:42:06;;;;;;;2.00;1.90;;;2.60;99.90;;;;;;6323331;22;20206;-86
2023/12/18 06:44:33;;;;;;;1.88;1.77;;;2.60;99.90;;;;;;6320985;22;20179;-87
2023/12/18 06:47:00;;;;;;;0.52;0.52;;;2.60;99.90;;;;;;6323372;22;20481;-88
2023/12/18 06:49:27;;;;;;;1.25;1.25;;;2.60;99.90;;;;;;6324287;22;20189;-87
2023/12/18 06:51:54;;;;;;;1.27;1.25;;;2.70;99.90;;;;;;6324411;22;20159;-89
2023/12/18 06:54:21;;;;;;;0.95;0.95;;;2.80;99.90;;;;;;6336601;22;20204;-87
2023/12/18 06:56:49;;;;;;;3.10;2.90;;;2.70;99.90;;;;;;6351980;22;20201;-88
2023/12/18 06:59:17;;;;;;;1.25;1.25;;;2.70;99.90;;;;;;6300220;22;20201;-87
2023/12/18 07:01:44;;;;;;;0.77;0.77;;;2.70;99.90;;;;;;6326557;22;20158;-89
2023/12/18 07:04:11;;;;;;;2.78;2.63;;;2.70;99.90;;;;;;6305599;22;20252;-88
2023/12/18 07:06:39;;;;;;;1.45;1.35;;;2.80;99.90;;;;;;6302288;22;20181;-90
2023/12/18 07:09:06;;;;;;;1.40;1.40;;;2.70;99.90;;;;;;6298744;22;20166;-88
2023/12/18 07:11:33;;;;;;;2.92;2.72;;;2.70;99.90;;;;;;6323332;22;20202;-88
2023/12/18 07:14:00;;;;;;;0.50;0.50;;;2.70;99.90;;;;;;6322810;22;20193;-87
2023/12/18 07:16:28;;;;;;;0.88;0.88;;;2.80;99.90;;;;;;6292735;22;20166;-87
2023/12/18 07:18:55;;;;;;;0.80;0.80;;;2.70;99.90;;;;;;6320048;22;20181;-87
2023/12/18 07:21:22;;;;;;;0.80;0.80;;;2.70;99.90;;;;;;6321023;22;20186;-88
2023/12/18 07:23:49;;;;;;;2.38;2.28;;;2.70;99.90;;;;;;6319116;22;20393;-86
2023/12/18 07:26:17;;;;;;;1.42;1.42;;;2.90;99.90;;;;;;6316196;22;20179;-88
2023/12/18 07:28:45;;;;;;;1.10;1.10;;;3.00;99.90;;;;;;6316797;22;20178;-87
2023/12/18 07:31:12;;;;;;;2.45;2.25;;;3.00;99.90;;;;;;6320855;22;20513;-85
2023/12/18 07:33:41;;;;;;;0.80;0.80;;;2.90;99.90;;;;;;6297143;22;20177;-86
2023/12/18 07:36:09;;;;;;;0.93;0.93;;;3.00;99.90;;;;;;6290985;22;20181;-86
2023/12/18 07:38:37;;;;;;;2.35;2.25;;;3.00;99.90;;;;;;6320148;22;20174;-88
2023/12/18 07:41:04;;;;;;;0.88;0.88;;;3.00;99.90;;;;;;6318402;22;20182;-86
2023/12/18 07:43:31;;;;;;;1.85;1.75;;;3.10;99.90;;;;;;6317344;22;20198;-86
2023/12/18 07:45:58;;;;;;;3.65;3.35;;;3.30;99.90;;;;;;6316182;22;20162;-87
2023/12/18 07:48:26;;;;;;;0.77;0.77;;;3.40;99.90;;;;;;6318119;22;20378;-85
2023/12/18 07:50:53;;;;;;;2.10;2.00;;;3.50;99.90;;;;;;6317869;22;20198;-84
2023/12/18 07:53:20;;;;;;;1.65;1.15;;;3.50;99.90;;;;;;6317704;22;20185;-85
2023/12/18 07:55:47;;;;;;;1.33;1.27;;;3.50;99.90;;;;;;6317577;22;20202;-85
2023/12/18 07:58:15;;;;;;;3.35;1.35;;;3.50;99.90;;;;;;6321406;22;20185;-86
2023/12/18 08:00:42;;;;;;;0.80;0.80;;;3.70;99.90;;;;;;6316539;22;20352;-85
2023/12/18 08:03:09;;;;;;;1.80;1.70;;;3.70;99.90;;;;;;6315949;22;20208;-88
2023/12/18 08:05:37;;;;;;;0.63;0.63;;;3.70;99.90;;;;;;6324145;22;20236;-87
2023/12/18 08:08:04;;;;;;;0.50;0.50;;;3.80;99.90;;;;;;6323285;22;20217;-88
2023/12/18 08:10:32;;;;;;;0.63;0.63;;;3.90;99.90;;;;;;6324753;22;20206;-87
2023/12/18 08:12:59;;;;;;;0.95;0.95;;;4.00;99.90;;;;;;6319519;22;20209;-88
2023/12/18 08:15:27;;;;;;;1.80;0.80;;;4.10;99.90;;;;;;6318018;22;20198;-87
2023/12/18 08:17:54;;;;;;;1.13;1.10;;;4.20;99.90;;;;;;6318041;22;20178;-86
2023/12/18 08:20:21;;;;;;;1.30;1.30;;;4.30;99.90;;;;;;6294996;22;20205;-88
2023/12/18 08:22:48;;;;;;;1.05;1.05;;;4.30;99.90;;;;;;6323084;22;20225;-87
2023/12/18 08:25:17;;;;;;;1.75;1.50;;;4.30;99.90;;;;;;6293264;22;20325;-88
2023/12/18 08:27:44;;;;;;;1.33;1.33;;;4.40;99.90;;;;;;6320974;22;20159;-88
2023/12/18 08:30:12;;;;;;;2.10;2.00;;;4.40;99.90;;;;;;6322302;22;20218;-88
2023/12/18 08:32:39;;;;;;;0.95;0.95;;;4.50;99.90;;;;;;6294786;22;20166;-90
2023/12/18 08:35:07;;;;;;;1.92;1.83;;;4.60;99.90;;;;;;6296579;22;20178;-87
2023/12/18 08:37:34;;;;;;;1.25;1.25;;;4.70;99.90;;;;;;6323062;22;20170;-86
2023/12/18 08:40:01;;;;;;;4.50;1.08;;;4.70;99.90;;;;;;6323788;22;20178;-88
2023/12/18 08:42:29;;;;;;;1.63;1.52;;;4.90;99.90;;;;;;6321743;22;20205;-88
2023/12/18 08:44:56;;;;;;;3.22;3.00;;;5.00;99.90;;;;;;6324692;22;20166;-87
2023/12/18 08:49:52;;;;;;;3.35;2.63;;;5.00;99.90;;;;;;6255050;22;20215;-87
2023/12/18 08:52:19;;;;;;;0.90;0.90;;;5.00;99.90;;;;;;6282936;22;20206;-87
2023/12/18 08:54:46;;;;;;;2.22;2.13;;;5.20;99.90;;;;;;6327393;22;20174;-89
2023/12/18 08:57:13;;;;;;;0.60;0.60;;;5.30;99.90;;;;;;6327540;22;20170;-88
2023/12/18 08:59:40;;;;;;;0.60;0.60;;;5.40;99.90;;;;;;6327203;22;20170;-88
2023/12/18 09:02:09;;;;;;;0.80;0.80;;;5.40;99.90;;;;;;6210857;22;20220;-87
2023/12/18 09:04:36;;;;;;;0.50;0.50;;;5.50;99.90;;;;;;6275860;22;20243;-88
2023/12/18 09:07:03;;;;;;;0.55;0.55;;;5.50;99.90;;;;;;6270410;22;20237;-86
2023/12/18 09:12:08;;;;;;;0.40;0.40;;;5.80;99.90;;;;;;6251124;22;20209;-88
2023/12/18 09:17:10;;;;;;;0.60;0.60;;;5.90;99.90;;;;;;6315134;22;20294;-88
2023/12/18 09:19:38;;;;;;;1.23;1.23;;;6.00;99.90;;;;;;6334881;22;20178;-87
2023/12/18 09:22:05;;;;;;;0.70;0.70;;;6.10;99.90;;;;;;6333666;22;20347;-89
2023/12/18 09:27:03;;;;;;;1.58;1.52;;;6.50;99.90;;;;;;6233735;22;20224;-88
2023/12/18 09:29:31;;;;;;;2.10;2.00;;;6.50;99.90;;;;;;6332273;22;20227;-88
2023/12/18 09:31:58;;;;;;;1.58;1.40;;;6.90;99.90;;;;;;6309509;22;20220;-86
2023/12/18 09:34:25;;;;;;;1.10;1.10;;;7.00;99.90;;;;;;6293551;22;20200;-86
2023/12/18 09:36:52;;;;;;;1.45;1.35;;;7.30;99.90;;;;;;6332162;22;20193;-87
2023/12/18 09:39:20;;;;;;;0.60;0.60;;;7.30;99.90;;;;;;6328679;22;20205;-89
2023/12/18 09:41:48;;;;;;;0.80;0.80;;;7.70;99.90;;;;;;6326141;22;20178;-86
2023/12/18 09:44:15;;;;;;;0.50;0.50;;;7.80;99.90;;;;;;6324225;22;20177;-88
2023/12/18 09:46:46;;;;;;;0.60;0.60;;;8.00;99.90;;;;;;6297810;22;20166;-88
2023/12/18 09:49:13;;;;;;;0.50;0.50;;;8.20;99.90;;;;;;6325096;22;20181;-87
2023/12/18 09:51:40;;;;;;;1.05;1.05;;;8.20;99.90;;;;;;6326101;22;20186;-88
2023/12/18 09:54:10;;;;;;;0.50;0.50;;;8.40;99.90;;;;;;6297878;22;20174;-86
2023/12/18 09:56:38;;;;;;;1.80;1.70;;;8.50;99.90;;;;;;6324446;22;20174;-87
2023/12/18 09:59:06;;;;;;;0.50;0.50;;;8.40;99.90;;;;;;6325554;22;20205;-87
2023/12/18 10:01:34;;;;;;;0.50;0.50;;;8.40;99.90;;;;;;6304600;22;20216;-87
2023/12/18 10:04:01;;;;;;;0.63;0.63;;;8.60;99.90;;;;;;6331684;22;20182;-87
2023/12/18 10:06:28;;;;;;;1.45;1.40;;;8.50;99.90;;;;;;6305650;22;20212;-87
2023/12/18 10:08:56;;;;;;;0.50;0.50;;;8.60;99.90;;;;;;6326616;22;20466;-86
2023/12/18 10:11:29;;;;;;;0.50;0.50;;;9.00;99.90;;;;;;6325231;22;20221;-87
2023/12/18 10:13:58;;;;;;;0.50;0.50;;;8.60;99.90;;;;;;6325577;22;20501;-87
2023/12/18 10:16:27;;;;;;;0.50;0.50;;;8.80;99.90;;;;;;6221634;22;20287;-87
2023/12/18 10:18:56;;;;;;;0.50;0.50;;;8.90;99.90;;;;;;6171640;22;20166;-89
2023/12/18 10:21:27;;;;;;;0.60;0.60;;;8.80;99.90;;;;;;6144369;23;20184;-87
2023/12/18 10:23:57;;;;;;;0.50;0.50;;;8.80;99.90;;;;;;6142771;23;20260;-88
2023/12/18 10:26:28;;;;;;;0.50;0.50;;;8.90;99.90;;;;;;6144489;23;20229;-90
2023/12/18 10:28:59;;;;;;;0.60;0.60;;;8.80;99.90;;;;;;6141614;23;20181;-89
2023/12/18 10:31:40;;;;;;;1.65;1.55;;;8.80;99.90;;;;;;6145035;23;20209;-88
2023/12/18 10:34:09;;;;;;;0.50;0.50;;;8.90;99.90;;;;;;6143351;23;20177;-87
2023/12/18 10:36:41;;;;;;;0.60;0.60;;;9.00;99.90;;;;;;6169089;22;20174;-88
2023/12/18 10:39:09;;;;;;;1.15;1.15;;;9.00;99.90;;;;;;6143136;23;20180;-90
2023/12/18 10:41:53;;;;;;;0.60;0.60;;;8.90;99.90;;;;;;6145470;23;20177;-90
2023/12/18 10:44:25;;;;;;;0.60;0.60;;;8.80;99.90;;;;;;6121728;23;20169;-88
2023/12/18 10:46:54;;;;;;;0.60;0.60;;;8.90;99.90;;;;;;6169094;23;20181;-84
2023/12/18 10:49:28;;;;;;;0.80;0.80;;;8.90;99.90;;;;;;6145388;23;20176;-88
2023/12/18 10:52:00;;;;;;;0.70;0.70;;;9.00;99.90;;;;;;6148501;23;20233;-85
2023/12/18 10:54:32;;;;;;;0.60;0.60;;;8.90;99.90;;;;;;6149234;22;20158;-88
2023/12/18 10:57:00;;;;;;;0.60;0.60;;;8.90;99.90;;;;;;6174232;22;20169;-89
2023/12/18 10:59:30;;;;;;;0.50;0.50;;;9.00;99.90;;;;;;6174733;22;20254;-87
2023/12/18 11:02:00;;;;;;;1.50;1.50;;;9.00;99.90;;;;;;6149607;23;20181;-89
2023/12/18 11:04:35;;;;;;;9.45;2.65;;;9.00;99.90;;;;;;6121098;23;20185;-88
2023/12/18 11:07:10;;;;;;;0.80;0.80;;;9.00;99.90;;;;;;6168874;23;20174;-89
2023/12/18 11:09:40;;;;;;;0.60;0.60;;;9.00;99.90;;;;;;6143247;23;20180;-87
2023/12/18 11:12:09;;;;;;;0.60;0.60;;;9.10;99.90;;;;;;6170469;23;20263;-89
2023/12/18 11:15:19;;;;;;;0.50;0.50;;;9.00;99.90;;;;;;6171577;23;20170;-88
2023/12/18 11:18:15;;;;;;;0.60;0.60;;;9.00;99.90;;;;;;6171367;22;20190;-89
2023/12/18 11:23:18;;;;;;;1.92;1.83;;;9.10;99.90;;;;;;6262966;22;20477;-89
2023/12/18 11:31:05;;;;;;;1.33;1.33;;;9.10;99.90;;;;;;6219261;22;20189;-89
2023/12/18 11:33:33;;;;;;;0.60;0.60;;;9.00;99.90;;;;;;6326453;22;20166;-86
2023/12/18 11:36:11;;;;;;;0.60;0.60;;;9.20;99.90;;;;;;6328574;22;20155;-88
2023/12/18 11:38:41;;;;;;;0.90;0.90;;;9.30;99.90;;;;;;6328074;22;20242;-88
2023/12/18 11:41:38;;;;;;;0.50;0.50;;;8.90;99.90;;;;;;6326794;22;20182;-88
2023/12/18 11:44:07;;;;;;;0.80;0.80;;;9.10;99.90;;;;;;6300143;22;20163;-87
2023/12/18 11:46:34;;;;;;;0.50;0.50;;;9.20;99.90;;;;;;6301850;22;20193;-88
2023/12/18 11:49:02;;;;;;;0.75;0.75;;;9.20;99.90;;;;;;6326917;22;20159;-86
2023/12/18 11:51:31;;;;;;;0.50;0.50;;;9.00;99.90;;;;;;6301220;22;20198;-89
2023/12/18 11:54:00;;;;;;;0.50;0.50;;;9.10;99.90;;;;;;6299092;22;20181;-90
2023/12/18 11:56:28;;;;;;;0.60;0.60;;;9.30;99.90;;;;;;6298159;22;20255;-89
2023/12/18 11:59:03;;;;;;;0.90;0.90;;;9.10;99.90;;;;;;6297912;22;20348;-88
2023/12/18 12:01:31;;;;;;;1.00;1.00;;;9.00;99.90;;;;;;6328726;22;20162;-89
2023/12/18 12:04:06;;;;;;;0.60;0.60;;;9.00;99.90;;;;;;6251815;22;20518;-89
2023/12/18 12:06:34;;;;;;;0.70;0.70;;;9.00;99.90;;;;;;6271566;22;20186;-88
2023/12/18 12:11:37;;;;;;;0.50;0.50;;;8.90;99.90;;;;;;6303558;22;20246;-88
2023/12/18 12:14:05;;;;;;;0.50;0.50;;;8.90;99.90;;;;;;6267062;22;20206;-88
2023/12/18 12:19:07;;;;;;;0.60;0.60;;;8.80;99.90;;;;;;6280636;22;20201;-89
2023/12/18 12:21:38;;;;;;;0.90;0.90;;;8.80;99.90;;;;;;6282105;22;20190;-87
2023/12/18 12:24:15;;;;;;;0.60;0.60;;;8.80;99.90;;;;;;6211716;22;20213;-88
2023/12/18 12:26:46;;;;;;;0.60;0.60;;;8.80;99.90;;;;;;6160476;22;20279;-87
2023/12/18 12:32:11;;;;;;;0.60;0.60;;;8.50;99.90;;;;;;6225745;22;20190;-87
2023/12/18 12:34:49;;;;;;;0.63;0.63;;;8.50;99.90;;;;;;6136797;22;20197;-87
2023/12/18 12:37:17;;;;;;;0.55;0.55;;;8.70;99.90;;;;;;6170046;23;20178;-88
2023/12/18 12:39:58;;;;;;;0.70;0.70;;;8.60;99.90;;;;;;6170294;22;20533;-91
2023/12/18 12:42:26;;;;;;;0.60;0.60;;;8.60;99.90;;;;;;6169942;22;20217;-87
2023/12/18 12:44:53;;;;;;;0.75;0.75;;;8.60;99.90;;;;;;6145645;23;20185;-87
2023/12/18 12:47:21;;;;;;;0.65;0.65;;;8.50;99.90;;;;;;6172255;22;20196;-88
2023/12/18 12:55:19;;;;;;;0.65;0.65;;;8.50;99.90;;;;;;6311596;22;20236;-87
2023/12/18 12:57:57;;;;;;;1.50;1.42;;;8.40;99.90;;;;;;6272703;22;20194;-88
2023/12/18 13:05:50;;;;;;;0.60;0.60;;;8.40;99.90;;;;;;6231950;22;20258;-90
2023/12/18 13:08:20;;;;;;;1.52;1.40;;;8.30;99.90;;;;;;6070241;22;1564941;-87
2023/12/18 13:16:10;;;;;;;0.50;0.50;;;8.40;99.90;;;;;;6255306;22;20183;-87
2023/12/18 13:32:08;;;;;;;0.60;0.60;;;9.00;99.90;;;;;;6197357;22;20206;-89
2023/12/18 13:34:35;;;;;;;0.50;0.50;;;9.10;99.90;;;;;;6329054;22;20192;-89
2023/12/18 13:42:28;;;;;;;0.70;0.70;;;8.80;99.90;;;;;;6220474;22;20194;-88
2023/12/18 13:44:56;;;;;;;1.30;1.30;;;8.80;99.90;;;;;;6188845;22;20219;-89
2023/12/18 13:52:40;;;;;;;0.50;0.50;;;8.60;99.90;;;;;;6306135;22;20205;-88
2023/12/18 13:55:08;;;;;;;0.50;0.50;;;8.50;99.90;;;;;;6301184;22;20166;-86
2023/12/18 14:05:18;;;;;;;0.57;0.57;;;8.10;99.90;;;;;;6202043;22;20293;-89
2023/12/18 14:10:22;;;;;;;0.60;0.60;;;7.90;99.90;;;;;;6188479;22;20205;-88
2023/12/18 14:12:49;;;;;;;0.60;0.60;;;7.90;99.90;;;;;;6148560;22;20196;-89
2023/12/18 14:17:52;;;;;;;0.70;0.70;;;8.00;99.90;;;;;;6225409;22;20174;-87
2023/12/18 14:20:19;;;;;;;0.60;0.60;;;7.90;99.90;;;;;;6151380;22;20208;-85
2023/12/18 14:22:46;;;;;;;0.40;0.40;;;7.90;99.90;;;;;;6307890;22;20151;-87
2023/12/18 14:27:50;;;;;;;0.50;0.50;;;7.90;99.90;;;;;;6192855;22;20249;-87
2023/12/18 15:37:50;;;;;;;1.75;1.65;;;6.80;99.90;;;;;;6244437;22;20205;-87
2023/12/18 15:40:17;;;;;;;0.85;0.85;;;6.70;99.90;;;;;;6329882;22;20186;-85
2023/12/18 15:42:44;;;;;;;1.30;1.30;;;6.50;99.90;;;;;;6329371;22;20166;-85
2023/12/18 15:45:12;;;;;;;2.00;1.90;;;6.50;99.90;;;;;;6302737;22;20189;-84
2023/12/18 15:47:40;;;;;;;1.15;1.13;;;6.40;99.90;;;;;;6325598;22;20170;-88
2023/12/18 15:50:09;;;;;;;3.40;3.13;;;6.40;99.90;;;;;;6326339;22;20182;-86
2023/12/18 15:52:36;;;;;;;1.02;1.02;;;6.30;99.90;;;;;;6326389;22;20257;-86
2023/12/18 15:55:04;;;;;;;1.50;1.50;;;6.30;99.90;;;;;;6324704;22;20193;-87
2023/12/18 15:57:31;;;;;;;0.80;0.80;;;6.30;99.90;;;;;;6295352;22;20414;-85
2023/12/18 15:59:58;;;;;;;0.95;0.95;;;6.30;99.90;;;;;;6322132;22;20196;-86
2023/12/18 16:02:25;;;;;;;6.30;3.95;;;6.20;99.90;;;;;;6321254;22;20236;-86
2023/12/18 16:04:52;;;;;;;1.50;1.40;;;6.30;99.90;;;;;;6323289;22;20185;-87
2023/12/18 16:07:19;;;;;;;1.77;1.20;;;6.30;99.90;;;;;;6323923;22;20165;-87
2023/12/18 16:09:48;;;;;;;1.77;1.05;;;6.30;99.90;;;;;;6325012;22;20340;-86
2023/12/18 16:12:17;;;;;;;1.42;1.42;;;6.30;99.90;;;;;;6294229;22;20502;-85
2023/12/18 16:14:44;;;;;;;1.98;1.88;;;6.20;99.90;;;;;;6328091;22;20169;-87
2023/12/18 16:17:11;;;;;;;1.02;1.02;;;6.20;99.90;;;;;;6329507;22;20200;-87
2023/12/18 16:19:39;;;;;;;1.70;1.60;;;6.30;99.90;;;;;;6296895;22;20249;-86